ROMMA est une association bénévole à but non lucratif. Votre soutien est indispensable : ADHERER à ROMMA ou FAIRE un DON

Chambon - (38, Isère)

Oisans (2460 m)   Longitude: 06° 10' 42" E   Latitude: 45° 01' 32" N Station partenaire n°803
 

Détail journalier du     <<     >>

Température Humidité Vent Dir Rafale Dir. rafale Neige 1 Neige 2
Heure (°C) (%) (km/h) (km/h) (cm) (cm)
01:00 6.35436S79SSO03
02:00 6.35029S69S03
03:00 6.55027S63S03
04:00 6.15529SSE70SSO03
05:00 6.15731S73S03
06:00 6.25838S89SSO03
07:00 5.96638SSO90SSO04
08:00 6.36235S95SSO03
09:00 6.35846SSO103SSO03
10:00 6.94844SSO97SSO03
11:00 7.35252SSO119SSO03
12:00 7.95463SSO124SSO02
13:00 8.54866SSO123SSO02
14:00 8.74365SSO125SSO02
15:00 8.94366SSO124SSO02
16:00 8.25169SSO127SSO02
17:00 7.26161SSO124SSO01
18:00 5.08050SSO102SSO02
19:00 6.17246SSO113SSO02
20:00 4.88437SSO93SSO03
21:00 4.48224S57SSO03
22:00 4.08422SSO67SSO03
23:00 5.08128SSO78SSO03
minuit 5.08331SSO76SSO23

Graphique du 20-10-2019

 

Serveur OMMA